Finney Heights, Illinois
Current Conditions -  °F | °C
As of 6:15 AM on Friday 31 Oct 2014 (Local Time) from KENL Reporting Station
Overcast Overcast  
Wind Chill: 43°   Ceiling: 4500
Heat Index: 47°   Visibility: 10mi
Dew Point: 43°   Wind: 7mph
Humidity: 87%   Direction: 330°NNW
Pressure: 30.09"   Gusts: NA
Location:  38.5134°N, 89.1673°W
Report Text: KENL 311115Z AUTO 33006KT 10SM SCT029 BKN045 OVC070 08/06 A3009 RMK AO2 T00810060
Loading
Personal Weather Stations






























Interactive Weather Map
Tropical Storm Tracking
New forecast layout! Learn more

10-Day Weather Forecast

Advertisements
Track Severe Weather on mobile